Terminal Aerodrome Forecast
Issued by NWS

Home | Current Version | Previous Version | Text Only | Print | Product List | Glossary On
Versions: 1 2 3 4 5 6 7 8 9 10 11 12 13 14 15 16 17 18
000
FTUS41 KPBZ 101744
TAFBVI
TAF
KBVI 101744Z 1018/1118 26010G18KT P6SM BKN035
     FM102300 25005KT P6SM BKN090
     FM110800 18003KT 3SM -SN OVC015
     FM111000 17004KT 2SM -SN OVC010
     FM111400 16006KT 4SM -SN OVC025=

USA.gov is the U.S. government's official web portal to all federal, state and local government web resources and services.